Terminal Aerodrome Forecast
Issued by NWS

Home | Current Version | Previous Version | Text Only | Print | Product List | Glossary On
Versions: 1 2 3 4 5 6 7 8 9 10 11 12 13 14 15 16 17 18 19 20
000
FTAK31 PAJN 242334
TAFAYA
TAF
PAYA 242334Z 2500/2524 08006KT 6SM -RA BR SCT007 BKN014 OVC020
      TEMPO 2500/2504 VRB05KT 2SM -DZ BR BKN005 OVC014
     FM251100 14012KT 2SM -RA BR OVC007
      AMD LTD TO CLD VIS AND WIND 2501/2509=

USA.gov is the U.S. government's official web portal to all federal, state and local government web resources and services.